createdAt,value
2022-10-05T00:06:27.860Z,12.7
2022-10-05T00:16:28.181Z,12.8
2022-10-05T00:26:28.677Z,12.9
2022-10-05T00:36:29.393Z,13
2022-10-05T00:46:29.874Z,12.9
2022-10-05T00:56:30.172Z,12.9
2022-10-05T01:06:31.181Z,12.9
2022-10-05T01:16:31.553Z,13
2022-10-05T01:26:32.134Z,13
2022-10-05T01:36:32.788Z,13
2022-10-05T01:46:33.870Z,13
2022-10-05T01:56:34.678Z,13
2022-10-05T02:06:34.990Z,13
2022-10-05T02:16:36.015Z,13
2022-10-05T02:26:36.196Z,13
2022-10-05T02:46:37.422Z,12.9
2022-10-05T02:56:38.298Z,12.9
2022-10-05T03:06:39.080Z,13
2022-10-05T03:16:39.260Z,13.1
2022-10-05T03:26:39.493Z,13.1
2022-10-05T03:36:40.524Z,13
2022-10-05T03:46:41.228Z,13
2022-10-05T03:56:42.070Z,13
2022-10-05T04:06:42.307Z,13
2022-10-05T04:16:42.949Z,12.9
2022-10-05T04:26:43.046Z,12.9
2022-10-05T04:36:43.609Z,12.9
2022-10-05T04:46:43.772Z,12.7
2022-10-05T04:56:44.346Z,12.8
2022-10-05T05:06:44.814Z,12.9
2022-10-05T05:16:45.329Z,13
2022-10-05T05:26:45.223Z,13.1
2022-10-05T05:36:45.912Z,13.4
2022-10-05T05:47:02.738Z,13.3
2022-10-05T05:56:47.851Z,13.4
2022-10-05T06:06:48.430Z,13.5
2022-10-05T06:16:48.403Z,13.4
2022-10-05T06:26:48.706Z,13.6
2022-10-05T06:36:48.712Z,13.9
2022-10-05T06:46:49.375Z,14.2
2022-10-05T06:56:49.720Z,14.5
2022-10-05T07:06:50.029Z,14.7
2022-10-05T07:16:51.142Z,14.8
2022-10-05T07:26:51.493Z,15
2022-10-05T07:36:54.723Z,15
2022-10-05T07:46:52.330Z,15.1
2022-10-05T07:56:53.103Z,15.1
2022-10-05T08:06:54.102Z,15.1
2022-10-05T08:16:54.992Z,15.2
2022-10-05T08:26:55.122Z,15.3
2022-10-05T08:36:55.196Z,15.4
2022-10-05T08:46:55.732Z,15.5
2022-10-05T08:56:56.671Z,15.7
2022-10-05T09:06:57.180Z,15.8
2022-10-05T09:16:57.618Z,16
2022-10-05T09:26:58.311Z,16.1
2022-10-05T09:36:59.046Z,16.3
2022-10-05T09:46:59.665Z,16.3
2022-10-05T09:57:00.373Z,16.5
2022-10-05T10:07:01.271Z,16.6
2022-10-05T10:17:02.090Z,16.7
2022-10-05T10:27:02.197Z,16.7
2022-10-05T10:37:02.879Z,16.8
2022-10-05T10:47:03.502Z,16.9
2022-10-05T10:57:03.958Z,17.1
2022-10-05T11:07:05.005Z,17.2
2022-10-05T11:17:05.205Z,17.3
2022-10-05T11:27:05.581Z,17.5
2022-10-05T11:37:06.443Z,17.7
2022-10-05T11:47:06.662Z,18.1
2022-10-05T11:57:06.845Z,18
2022-10-05T12:07:07.192Z,18.3
2022-10-05T12:17:07.672Z,18.5
2022-10-05T12:27:08.250Z,18.7
2022-10-05T12:37:09.146Z,18.8
2022-10-05T12:47:10.038Z,19.1
2022-10-05T12:57:10.190Z,19.3
2022-10-05T13:07:10.868Z,19.6
2022-10-05T13:27:11.731Z,20
2022-10-05T13:37:12.136Z,20.1
2022-10-05T13:47:12.625Z,20.3
2022-10-05T14:07:13.612Z,20.6
2022-10-05T14:27:14.553Z,20.4
2022-10-05T14:37:15.013Z,20.3
2022-10-05T14:47:16.037Z,20.3
2022-10-05T14:57:16.251Z,20.3
2022-10-05T15:07:17.274Z,20.2
2022-10-05T15:17:18.082Z,20
2022-10-05T15:27:26.288Z,20
2022-10-05T15:37:26.971Z,19.7
2022-10-05T15:47:27.197Z,19.6
2022-10-05T15:57:27.641Z,19.5
2022-10-05T16:07:28.013Z,19.3
2022-10-05T16:27:29.003Z,19
2022-10-05T16:37:29.483Z,18.9
2022-10-05T16:47:29.629Z,18.9
2022-10-05T16:57:30.472Z,18.7
2022-10-05T17:07:31.099Z,18.9
2022-10-05T17:17:31.616Z,19.2
2022-10-05T17:27:31.829Z,19.2
2022-10-05T17:37:32.415Z,18.7
2022-10-05T17:47:33.222Z,18.4
2022-10-05T17:57:33.512Z,18.2
2022-10-05T18:17:34.425Z,18.1
2022-10-05T18:27:34.996Z,18
2022-10-05T18:37:35.754Z,18
2022-10-05T18:47:36.734Z,18
2022-10-05T18:57:37.692Z,17.9
2022-10-05T19:07:38.171Z,18
2022-10-05T19:17:38.803Z,18
2022-10-05T19:27:39.366Z,18.1
2022-10-05T19:37:40.281Z,18
2022-10-05T19:47:41.316Z,18.1
2022-10-05T19:57:40.819Z,18.1
2022-10-05T20:07:41.502Z,18.4
2022-10-05T20:17:42.532Z,18.3
2022-10-05T20:27:42.815Z,18.3
2022-10-05T20:47:43.608Z,18.3
2022-10-05T20:57:43.705Z,18.3
2022-10-05T21:07:44.450Z,18.4
2022-10-05T21:17:44.967Z,18.4
2022-10-05T21:27:45.087Z,18.4
2022-10-05T21:37:46.141Z,18.4
2022-10-05T21:47:46.244Z,18.3
2022-10-05T21:57:47.152Z,18.2
2022-10-05T22:07:47.842Z,17.1
2022-10-05T22:17:48.782Z,16.1
2022-10-05T22:27:48.961Z,15.9
2022-10-05T22:37:49.139Z,15.7
2022-10-05T22:47:49.890Z,15.7
2022-10-05T22:57:50.029Z,15.7
2022-10-05T23:07:50.974Z,15.6
2022-10-05T23:17:51.226Z,15.5
2022-10-05T23:27:51.539Z,14.7
2022-10-05T23:37:51.623Z,14.4
2022-10-05T23:47:51.931Z,14.1
2022-10-05T23:57:52.447Z,13.9
